Time;durP1;ratioP1;P1;durP2;ratioP2;P2;SDS_P1;SDS_P2;PMS_P1;PMS_P2;Temp;Humidity;BMP_temperature;BMP_pressure;BME280_temperature;BME280_humidity;BME280_pressure;Samples;Min_cycle;Max_cycle;Signal;HPM_P1;HPM_P2
2021/12/02 00:01:47;;;;;;;11.18;2.72;;;;;;;2.38;100.00;99667.81;4902737;29;20064;-93
2021/12/02 00:04:20;;;;;;;14.18;2.92;;;;;;;2.79;100.00;99747.50;4918148;29;20382;-93
2021/12/02 00:06:54;;;;;;;11.27;2.60;;;;;;;2.85;100.00;99753.94;4917515;29;20461;-93
2021/12/02 00:09:23;;;;;;;11.85;2.70;;;;;;;2.87;100.00;99747.38;4887574;29;20036;-92
2021/12/02 00:11:52;;;;;;;12.40;2.55;;;;;;;2.91;100.00;99747.81;4902635;29;20361;-92
2021/12/02 00:14:25;;;;;;;10.18;2.55;;;;;;;2.92;100.00;99752.16;4917780;29;20032;-92
2021/12/02 00:17:08;;;;;;;13.07;2.72;;;;;;;3.18;100.00;99790.97;4902855;29;20052;-92
2021/12/02 00:23:18;;;;;;;9.48;2.03;;;;;;;3.18;100.00;99804.38;4918619;29;20116;-92
2021/12/02 00:25:52;;;;;;;12.68;2.28;;;;;;;2.39;100.00;99688.19;4917497;29;20039;-91
2021/12/02 00:28:23;;;;;;;12.75;2.38;;;;;;;2.38;100.00;99679.34;4902363;29;20422;-92
2021/12/02 00:31:38;;;;;;;14.85;2.67;;;;;;;3.15;100.00;99803.72;4917715;29;20028;-94
2021/12/02 00:34:24;;;;;;;13.15;2.65;;;;;;;2.91;100.00;99750.50;4917598;29;20444;-94
2021/12/02 00:37:05;;;;;;;9.93;2.47;;;;;;;2.46;100.00;99676.53;4886541;29;20386;-94
2021/12/02 00:39:54;;;;;;;12.13;2.78;;;;;;;2.63;100.00;99703.06;4884213;29;20044;-94
2021/12/02 00:42:35;;;;;;;14.27;2.60;;;;;;;2.32;100.00;99645.31;4903367;29;20043;-93
2021/12/02 00:45:16;;;;;;;10.43;2.50;;;;;;;2.64;100.00;99702.03;4901998;29;20032;-93
2021/12/02 00:47:49;;;;;;;14.10;2.95;;;;;;;2.47;100.00;99682.72;4919842;29;20040;-93
2021/12/02 00:50:18;;;;;;;10.82;2.60;;;;;;;2.20;100.00;99650.34;4919871;29;20429;-93
2021/12/02 00:52:57;;;;;;;12.75;2.90;;;;;;;2.81;100.00;99738.25;4919994;29;20350;-93
2021/12/02 00:55:32;;;;;;;13.25;3.03;;;;;;;2.57;100.00;99707.34;4920185;29;20036;-93
2021/12/02 00:58:17;;;;;;;;;;;;;;;;;;;;;
2021/12/02 01:01:00;;;;;;;;;;;;;;;;;;;;;
2021/12/02 01:06:25;;;;;;;11.15;2.80;;;;;;;2.31;100.00;99648.19;4918910;29;20042;-93
2021/12/02 01:08:53;;;;;;;12.90;3.25;;;;;;;2.23;100.00;99655.31;4903976;29;20414;-93
2021/12/02 01:11:23;;;;;;;22.02;3.13;;;;;;;2.80;100.00;99731.25;4919566;29;20040;-93
2021/12/02 01:13:56;;;;;;;16.10;2.92;;;;;;;2.78;100.00;99745.88;4903790;29;20032;-92
2021/12/02 01:16:24;;;;;;;19.75;2.95;;;;;;;2.30;100.00;99666.06;4919592;29;20028;-93
2021/12/02 01:18:52;;;;;;;16.25;3.20;;;;;;;2.74;100.00;99725.84;4919567;29;20056;-92
2021/12/02 01:21:23;;;;;;;12.20;2.40;;;;;;;3.09;100.00;99811.69;4888300;29;20024;-92
2021/12/02 01:24:02;;;;;;;13.63;2.60;;;;;;;2.23;100.00;99658.00;4919404;29;20024;-92
2021/12/02 01:26:30;;;;;;;11.05;2.83;;;;;;;2.61;100.00;99722.00;4919533;29;20122;-92
2021/12/02 01:29:04;;;;;;;9.43;2.30;;;;;;;2.32;100.00;99656.03;4903889;29;20409;-93
2021/12/02 01:31:37;;;;;;;10.15;2.17;;;;;;;2.35;100.00;99687.75;4919337;29;20024;-93
2021/12/02 01:34:08;;;;;;;8.23;2.08;;;;;;;2.17;100.00;99677.50;4919259;29;20039;-93
2021/12/02 01:36:55;;;;;;;11.45;2.05;;;;;;;2.06;100.00;99675.28;4919292;29;20365;-91
2021/12/02 01:39:28;;;;;;;11.13;2.13;;;;;;;2.53;100.00;99756.94;4919767;29;20377;-94
2021/12/02 01:41:59;;;;;;;11.27;2.22;;;;;;;2.02;100.00;99690.91;4919713;29;20036;-94
2021/12/02 01:44:33;;;;;;;11.88;2.40;;;;;;;1.96;100.00;99685.47;4919648;29;20119;-94
2021/12/02 01:47:15;;;;;;;13.00;3.17;;;;;;;1.99;100.00;99696.59;4918885;29;20401;-93
2021/12/02 01:50:04;;;;;;;15.60;2.90;;;;;;;2.23;100.00;99727.56;4919157;29;20052;-93
2021/12/02 01:52:37;;;;;;;13.48;3.40;;;;;;;1.97;100.00;99679.94;4903687;29;20381;-93
2021/12/02 01:58:41;;;;;;;10.90;3.05;;;;;;;2.43;100.00;99756.41;4920930;29;20038;-93
2021/12/02 02:01:29;;;;;;;10.57;2.97;;;;;;;1.83;100.00;99670.06;4919562;29;20086;-94
2021/12/02 02:04:04;;;;;;;7.25;2.55;;;;;;;1.81;100.00;99672.13;4896403;29;20799;-93
2021/12/02 02:06:54;;;;;;;9.48;2.55;;;;;;;1.70;100.00;99660.88;4918957;29;20418;-93
2021/12/02 02:09:23;;;;;;;9.10;2.33;;;;;;;1.95;100.00;99715.91;4918194;29;20095;-93
2021/12/02 02:11:56;;;;;;;9.70;2.90;;;;;;;1.58;100.00;99681.91;4918736;29;20032;-92
2021/12/02 02:14:31;;;;;;;5.00;2.40;;;;;;;2.30;100.00;99805.25;4918730;29;20080;-93
2021/12/02 02:17:08;;;;;;;10.52;2.72;;;;;;;2.03;100.00;99763.97;4918587;29;20032;-93
2021/12/02 02:19:46;;;;;;;9.20;3.03;;;;;;;2.18;100.00;99804.91;4918450;29;20104;-93
2021/12/02 02:22:23;;;;;;;10.25;2.70;;;;;;;2.15;100.00;99801.78;4902770;29;20032;-93
2021/12/02 02:25:00;;;;;;;8.90;3.08;;;;;;;1.28;100.00;99675.72;4872799;29;20031;-93
2021/12/02 02:27:30;;;;;;;7.82;2.90;;;;;;;1.20;100.00;99678.50;4918292;29;20529;-91
2021/12/02 02:29:57;;;;;;;13.10;3.08;;;;;;;1.33;100.00;99686.72;4918279;29;20028;-90
2021/12/02 02:32:28;;;;;;;8.48;2.90;;;;;;;1.52;100.00;99714.75;4917979;29;20175;-92
2021/12/02 02:35:02;;;;;;;8.97;2.97;;;;;;;1.25;100.00;99680.63;4887011;29;20031;-92
2021/12/02 02:37:33;;;;;;;6.88;3.10;;;;;;;1.27;100.00;99671.41;4902635;29;20028;-92
2021/12/02 02:40:04;;;;;;;7.88;2.90;;;;;;;2.07;100.00;99800.06;4917746;29;20028;-93
2021/12/02 02:42:35;;;;;;;7.18;2.60;;;;;;;1.77;100.00;99756.41;4918022;29;20039;-92
2021/12/02 02:45:04;;;;;;;10.93;2.88;;;;;;;1.25;100.00;99669.94;4917836;29;20039;-92
2021/12/02 02:47:35;;;;;;;9.85;2.30;;;;;;;1.68;100.00;99759.19;4917778;29;20058;-93
2021/12/02 02:50:01;;;;;;;8.68;2.50;;;;;;;1.17;100.00;99684.22;4903111;29;20033;-93
2021/12/02 02:52:33;;;;;;;7.47;2.33;;;;;;;1.80;100.00;99789.00;4918488;29;20032;-93
2021/12/02 02:55:01;;;;;;;11.35;2.50;;;;;;;1.38;100.00;99736.94;4918163;29;20122;-92
2021/12/02 02:57:37;;;;;;;9.85;2.17;;;;;;;1.56;100.00;99756.13;4902522;29;20050;-93
2021/12/02 03:00:13;;;;;;;10.05;2.40;;;;;;;1.48;100.00;99748.19;4889471;29;20507;-91
2021/12/02 03:02:57;;;;;;;11.15;2.50;;;;;;;1.09;100.00;99679.75;4918234;29;20390;-92
2021/12/02 03:05:42;;;;;;;7.32;2.22;;;;;;;1.02;100.00;99673.53;4904788;29;20492;-92
2021/12/02 03:08:17;;;;;;;10.88;2.60;;;;;;;0.98;100.00;99674.88;4917807;29;20398;-93
2021/12/02 03:10:54;;;;;;;11.98;2.80;;;;;;;1.71;100.00;99806.13;4918395;29;20119;-91
2021/12/02 03:13:35;;;;;;;9.10;2.88;;;;;;;1.70;100.00;99797.28;4917788;29;20355;-93
2021/12/02 03:18:59;;;;;;;10.02;2.92;;;;;;;0.93;100.00;99674.59;4904783;29;20507;-92
2021/12/02 03:21:29;;;;;;;9.25;3.10;;;;;;;0.99;100.00;99688.06;4902353;29;20385;-92
2021/12/02 03:23:59;;;;;;;13.02;3.28;;;;;;;1.57;100.00;99776.50;4917655;29;20064;-92
2021/12/02 03:26:29;;;;;;;11.60;3.00;;;;;;;1.81;100.00;99822.72;4917633;29;20032;-92
2021/12/02 03:28:56;;;;;;;8.40;3.05;;;;;;;1.37;100.00;99740.63;4917551;29;20024;-92
2021/12/02 03:31:28;;;;;;;10.80;3.03;;;;;;;1.03;100.00;99681.34;4917662;29;20048;-92
2021/12/02 03:33:58;;;;;;;9.35;3.10;;;;;;;1.25;100.00;99718.84;4902325;29;20126;-92
2021/12/02 03:36:27;;;;;;;9.70;2.85;;;;;;;1.91;100.00;99812.59;4917063;29;20381;-91
2021/12/02 03:39:03;;;;;;;10.02;3.10;;;;;;;1.26;100.00;99696.47;4918189;29;20039;-92
2021/12/02 03:41:42;;;;;;;14.63;3.00;;;;;;;1.76;100.00;99771.66;4917988;29;20452;-92
2021/12/02 03:44:09;;;;;;;9.43;2.65;;;;;;;2.08;100.00;99829.31;4902683;29;20036;-92
2021/12/02 03:46:37;;;;;;;11.02;2.75;;;;;;;1.33;100.00;99707.25;4896382;29;20067;-92
2021/12/02 03:49:04;;;;;;;10.73;2.20;;;;;;;1.58;100.00;99751.44;4915592;29;20111;-89
2021/12/02 03:51:33;;;;;;;9.15;2.15;;;;;;;1.59;100.00;99744.25;4930010;29;20035;-91
2021/12/02 03:54:02;;;;;;;10.48;2.15;;;;;;;1.14;100.00;99671.22;4903792;29;20072;-90
2021/12/02 03:56:29;;;;;;;11.38;2.47;;;;;;;1.72;100.00;99747.09;4890511;29;20051;-91
2021/12/02 03:58:57;;;;;;;6.80;2.35;;;;;;;1.63;100.00;99739.38;4906505;29;20051;-92
2021/12/02 04:01:25;;;;;;;13.30;2.25;;;;;;;1.82;100.00;99775.44;4904205;29;20363;-92
2021/12/02 04:03:54;;;;;;;7.43;2.38;;;;;;;1.74;100.00;99777.19;4902611;29;20036;-92
2021/12/02 04:06:27;;;;;;;14.00;2.40;;;;;;;1.13;100.00;99698.94;4917515;29;20092;-92
2021/12/02 04:09:04;;;;;;;8.30;2.10;;;;;;;1.01;100.00;99675.34;4901925;29;20055;-92
2021/12/02 04:11:53;;;;;;;13.15;2.50;;;;;;;1.55;100.00;99758.97;4917310;29;20487;-91
2021/12/02 04:14:38;;;;;;;10.57;2.40;;;;;;;1.83;100.00;99817.19;4904973;29;20377;-93
2021/12/02 04:17:07;;;;;;;9.13;2.17;;;;;;;0.96;100.00;99679.56;4917438;29;20096;-93
2021/12/02 04:19:38;;;;;;;5.97;1.77;;;;;;;1.85;100.00;99816.00;4917170;29;20043;-92
2021/12/02 04:22:05;;;;;;;15.68;2.40;;;;;;;1.07;100.00;99684.47;4921279;29;20122;-93
2021/12/02 04:24:36;;;;;;;6.88;2.00;;;;;;;1.57;100.00;99771.16;4921195;29;20165;-93
2021/12/02 04:27:08;;;;;;;5.43;1.63;;;;;;;1.56;100.00;99768.66;4905617;29;20489;-92
2021/12/02 04:29:38;;;;;;;8.38;1.67;;;;;;;0.93;100.00;99679.94;4890700;29;20707;-93
2021/12/02 04:32:10;;;;;;;5.13;1.70;;;;;;;1.39;100.00;99758.16;4874981;29;20091;-90
2021/12/02 04:34:43;;;;;;;8.80;1.60;;;;;;;1.66;100.00;99830.72;4892237;29;20072;-92
2021/12/02 04:37:15;;;;;;;8.13;1.80;;;;;;;0.87;100.00;99694.84;4908950;29;20044;-94
2021/12/02 04:39:55;;;;;;;8.48;1.98;;;;;;;1.67;100.00;99824.38;4905995;29;20386;-93
2021/12/02 04:42:48;;;;;;;9.75;2.10;;;;;;;1.71;100.00;99835.53;4920314;29;20389;-92
2021/12/02 04:45:18;;;;;;;13.75;2.22;;;;;;;1.75;100.00;99844.84;4904893;29;20365;-93
2021/12/02 04:48:01;;;;;;;7.65;1.98;;;;;;;1.52;100.00;99784.25;4904850;29;20468;-93
2021/12/02 04:50:32;;;;;;;10.27;1.98;;;;;;;1.52;100.00;99794.94;4920467;29;20028;-91
2021/12/02 04:53:02;;;;;;;10.25;2.10;;;;;;;0.90;100.00;99704.31;4905102;29;20466;-92
2021/12/02 04:55:47;;;;;;;12.85;2.15;;;;;;;1.65;100.00;99839.75;4920468;29;20020;-92
2021/12/02 04:58:17;;;;;;;5.95;1.95;;;;;;;1.33;100.00;99798.13;4889142;29;20115;-92
2021/12/02 05:00:46;;;;;;;9.57;2.17;;;;;;;1.35;100.00;99790.78;4920449;29;20497;-93
2021/12/02 05:03:41;;;;;;;8.93;2.22;;;;;;;0.86;100.00;99704.69;4920272;29;20040;-93
2021/12/02 05:06:17;;;;;;;8.38;1.85;;;;;;;0.88;100.00;99713.34;4904168;29;20040;-92
2021/12/02 05:08:46;;;;;;;14.02;3.08;;;;;;;0.97;100.00;99724.78;4903770;29;20117;-93
2021/12/02 05:11:12;;;;;;;10.82;2.55;;;;;;;1.12;100.00;99735.53;4903929;29;20032;-92
2021/12/02 05:13:47;;;;;;;6.57;2.45;;;;;;;1.06;100.00;99720.22;4919845;29;20084;-92
2021/12/02 05:16:15;;;;;;;10.55;2.30;;;;;;;1.50;100.00;99788.13;4920046;29;20107;-92
2021/12/02 05:18:44;;;;;;;10.95;2.63;;;;;;;1.06;100.00;99720.22;4920985;29;20032;-93
2021/12/02 05:21:12;;;;;;;12.80;2.00;;;;;;;1.86;100.00;99862.28;4920639;29;20095;-93
2021/12/02 05:24:01;;;;;;;8.40;1.60;;;;;;;1.70;100.00;99829.38;4919568;29;20193;-92
2021/12/02 05:26:47;;;;;;;8.70;1.50;;;;;;;1.09;100.00;99759.91;4906506;29;20035;-93
2021/12/02 05:29:26;;;;;;;5.97;0.93;;;;;;;1.47;100.00;99826.72;4920362;29;20043;-93
2021/12/02 05:32:02;;;;;;;4.43;0.90;;;;;;;1.38;100.00;99834.00;4918972;29;20591;-94
2021/12/02 05:34:33;;;;;;;3.47;0.70;;;;;;;0.83;100.00;99737.09;4904645;29;20032;-92
2021/12/02 05:37:02;;;;;;;3.10;0.80;;;;;;;0.72;100.00;99736.69;4903569;29;20032;-93
2021/12/02 05:39:50;;;;;;;7.32;1.23;;;;;;;0.77;100.00;99751.19;4919725;29;20111;-93
2021/12/02 05:42:22;;;;;;;2.58;0.60;;;;;;;0.92;100.00;99796.63;4905780;29;20367;-92
2021/12/02 05:45:07;;;;;;;4.03;0.90;;;;;;;0.60;100.00;99752.28;4919868;29;20034;-93
2021/12/02 05:47:33;;;;;;;3.90;0.73;;;;;;;0.96;100.00;99821.97;4919654;29;20502;-92
2021/12/02 05:49:59;;;;;;;6.15;0.98;;;;;;;0.50;100.00;99747.19;4918948;29;20438;-92
2021/12/02 05:52:44;;;;;;;2.90;0.95;;;;;;;0.59;100.00;99767.50;4921160;29;20028;-93
2021/12/02 05:55:13;;;;;;;7.22;1.52;;;;;;;0.86;100.00;99806.19;4904410;29;20036;-92
2021/12/02 05:57:54;;;;;;;10.70;1.45;;;;;;;1.00;100.00;99833.94;4887503;29;20382;-92
2021/12/02 06:00:24;;;;;;;6.53;1.35;;;;;;;0.50;100.00;99744.50;4918762;29;20377;-92
2021/12/02 06:02:55;;;;;;;3.35;0.77;;;;;;;1.04;100.00;99824.56;4918871;29;20024;-91
2021/12/02 06:05:24;;;;;;;2.67;0.60;;;;;;;1.28;100.00;99891.38;4918873;29;20028;-91
2021/12/02 06:08:03;;;;;;;3.63;0.77;;;;;;;0.80;100.00;99814.91;4903488;29;20072;-92
2021/12/02 06:10:30;;;;;;;4.28;1.00;;;;;;;1.02;100.00;99871.19;4918877;29;20477;-91
2021/12/02 06:12:59;;;;;;;5.47;1.10;;;;;;;0.94;100.00;99871.22;4918563;29;20477;-90
2021/12/02 06:15:25;;;;;;;6.82;1.17;;;;;;;0.06;100.00;99740.59;4917588;29;20037;-91
2021/12/02 06:18:01;;;;;;;10.57;1.27;;;;;;;0.52;100.00;99834.09;4917594;29;20028;-92
2021/12/02 06:20:36;;;;;;;5.03;1.27;;;;;;;0.44;100.00;99830.63;4918425;29;20377;-94
2021/12/02 06:23:04;;;;;;;8.45;1.48;;;;;;;0.25;100.00;99814.03;4903043;29;20036;-92
2021/12/02 06:27:57;;;;;;;6.90;1.25;;;;;;;-0.10;100.00;99762.84;4919643;29;20397;-90
2021/12/02 06:30:26;;;;;;;7.05;1.50;;;;;;;0.50;100.00;99860.13;4901845;29;20099;-92
2021/12/02 06:32:54;;;;;;;4.85;1.55;;;;;;;0.44;100.00;99844.78;4901985;29;20491;-91
2021/12/02 06:35:21;;;;;;;5.43;1.42;;;;;;;0.59;100.00;99858.25;4902234;29;20035;-94
2021/12/02 06:37:47;;;;;;;5.47;1.38;;;;;;;0.09;100.00;99769.59;4901253;29;20425;-91
2021/12/02 06:40:22;;;;;;;6.07;1.30;;;;;;;0.64;100.00;99841.72;4918007;29;20059;-93
2021/12/02 06:43:19;;;;;;;9.82;1.83;;;;;;;0.93;100.00;99894.44;4902380;29;20052;-92
2021/12/02 06:45:56;;;;;;;6.82;2.17;;;;;;;0.06;100.00;99759.28;4901925;29;20113;-92
2021/12/02 06:48:27;;;;;;;8.93;2.63;;;;;;;0.03;100.00;99762.28;4899131;29;20127;-93
2021/12/02 06:51:06;;;;;;;10.13;2.97;;;;;;;0.56;100.00;99849.75;4899298;29;20042;-93
2021/12/02 06:53:39;;;;;;;10.10;3.50;;;;;;;0.62;100.00;99867.72;4898874;29;20414;-92
2021/12/02 06:56:11;;;;;;;11.18;4.13;;;;;;;0.08;100.00;99783.94;4898457;29;20394;-93
2021/12/02 06:58:38;;;;;;;15.32;4.70;;;;;;;0.45;100.00;99854.47;4898743;29;20033;-92
2021/12/02 07:01:14;;;;;;;8.60;4.63;;;;;;;1.03;100.00;99934.28;4898363;29;20028;-92
2021/12/02 07:03:45;;;;;;;9.10;4.07;;;;;;;0.38;100.00;99828.66;4897753;29;20482;-92
2021/12/02 07:06:13;;;;;;;11.70;4.07;;;;;;;0.57;100.00;99859.44;4883770;29;20390;-92
2021/12/02 07:08:42;;;;;;;11.82;4.13;;;;;;;0.86;100.00;99898.84;4898144;29;20037;-92
2021/12/02 07:11:10;;;;;;;9.88;4.32;;;;;;;1.19;100.00;99949.38;4898683;29;20103;-92
2021/12/02 07:13:47;;;;;;;13.98;5.63;;;;;;;0.49;100.00;99837.09;4898711;29;20368;-92
2021/12/02 07:16:31;;;;;;;12.90;5.80;;;;;;;0.49;100.00;99823.75;4883235;29;20386;-93
2021/12/02 07:18:58;;;;;;;10.40;5.57;;;;;;;0.61;100.00;99836.72;4884582;29;20347;-92
2021/12/02 07:21:36;;;;;;;12.88;5.30;;;;;;;1.38;100.00;99954.28;4899629;29;20035;-93
2021/12/02 07:24:23;;;;;;;10.25;4.78;;;;;;;0.62;100.00;99839.22;4898919;29;20033;-93
2021/12/02 07:27:05;;;;;;;11.55;4.43;;;;;;;1.21;100.00;99929.50;4899035;29;20092;-92
2021/12/02 07:29:39;;;;;;;8.88;3.50;;;;;;;0.47;100.00;99822.25;4884791;29;20064;-92
2021/12/02 07:32:17;;;;;;;6.32;3.20;;;;;;;0.61;100.00;99845.56;4882912;29;20116;-92
2021/12/02 07:34:48;;;;;;;11.05;4.20;;;;;;;0.50;100.00;99833.44;4898050;29;20510;-92
2021/12/02 07:37:34;;;;;;;11.48;4.13;;;;;;;1.42;100.00;99969.97;4897703;29;20351;-92
2021/12/02 07:40:11;;;;;;;10.40;4.50;;;;;;;0.63;100.00;99850.72;4898266;29;20032;-93
2021/12/02 07:42:48;;;;;;;11.30;4.88;;;;;;;0.62;100.00;99857.06;4897669;29;20035;-92
2021/12/02 07:45:29;;;;;;;11.77;4.47;;;;;;;0.62;100.00;99855.22;4883544;29;20037;-93
2021/12/02 07:47:57;;;;;;;12.60;4.38;;;;;;;0.63;100.00;99861.41;4905479;29;20048;-93
2021/12/02 07:50:27;;;;;;;14.60;4.22;;;;;;;0.54;100.00;99854.44;4913362;29;20064;-93
2021/12/02 07:53:08;;;;;;;7.40;3.40;;;;;;;0.54;100.00;99857.94;4914031;29;20092;-92
2021/12/02 07:55:46;;;;;;;10.43;4.10;;;;;;;0.51;100.00;99860.94;4917001;29;20363;-92
2021/12/02 07:58:19;;;;;;;12.32;4.78;;;;;;;0.47;100.00;99862.28;4917728;29;20024;-92
2021/12/02 08:00:49;;;;;;;10.75;5.05;;;;;;;0.67;100.00;99908.91;4917552;29;20123;-93
2021/12/02 08:03:26;;;;;;;16.15;5.78;;;;;;;0.34;100.00;99876.22;4917301;29;20107;-92
2021/12/02 08:06:06;;;;;;;11.68;5.72;;;;;;;0.27;100.00;99870.72;4887135;29;20059;-93
2021/12/02 08:08:40;;;;;;;9.80;5.38;;;;;;;0.26;100.00;99873.56;4889578;29;20037;-92
2021/12/02 08:11:11;;;;;;;15.13;6.07;;;;;;;0.14;100.00;99865.91;4901779;29;20394;-90
2021/12/02 08:13:40;;;;;;;14.55;6.78;;;;;;;0.45;100.00;99923.03;4901624;29;20123;-92
2021/12/02 08:16:09;;;;;;;11.70;5.68;;;;;;;0.05;100.00;99861.63;4900896;29;20096;-92
2021/12/02 08:18:35;;;;;;;14.25;6.03;;;;;;;0.09;100.00;99889.63;4919537;29;20349;-91
2021/12/02 08:21:04;;;;;;;13.32;6.13;;;;;;;0.52;100.00;99961.38;4901158;29;20039;-92
2021/12/02 08:23:33;;;;;;;12.23;6.05;;;;;;;-0.08;100.00;99867.47;4915805;29;20476;-91
2021/12/02 08:26:00;;;;;;;11.95;6.57;;;;;;;-0.10;100.00;99876.69;4916950;29;20115;-92
2021/12/02 08:28:30;;;;;;;13.38;5.95;;;;;;;0.22;100.00;99928.25;4916694;29;20025;-91
2021/12/02 08:31:05;;;;;;;9.43;5.68;;;;;;;-0.13;100.00;99879.66;4916480;29;20024;-91
2021/12/02 08:36:49;;;;;;;11.38;4.65;;;;;;;0.33;100.00;99954.59;4892457;29;20032;-93
2021/12/02 08:39:22;;;;;;;14.38;4.57;;;;;;;-0.22;100.00;99865.53;4887157;29;20037;-91
2021/12/02 08:41:53;;;;;;;12.57;3.95;;;;;;;0.44;100.00;99966.72;4916234;29;20048;-91
2021/12/02 08:44:19;;;;;;;14.50;4.63;;;;;;;0.10;100.00;99909.94;4916741;29;20044;-91
2021/12/02 08:46:50;;;;;;;14.43;4.35;;;;;;;0.03;100.00;99908.13;4918086;29;20020;-91
2021/12/02 08:49:23;;;;;;;11.60;3.72;;;;;;;0.35;100.00;99968.59;4919403;29;20028;-89
2021/12/02 08:51:49;;;;;;;12.07;3.65;;;;;;;0.28;100.00;99968.44;4920313;29;20024;-90
2021/12/02 08:54:19;;;;;;;12.30;4.72;;;;;;;0.44;100.00;99988.09;4918631;29;20500;-92
2021/12/02 08:56:49;;;;;;;13.18;4.53;;;;;;;0.12;100.00;99936.47;4904217;29;20032;-93
2021/12/02 08:59:31;;;;;;;15.10;5.30;;;;;;;0.65;100.00;100015.06;4904051;29;20065;-93
2021/12/02 09:02:11;;;;;;;12.88;5.38;;;;;;;0.29;100.00;99946.09;4903893;29;20115;-93
2021/12/02 09:05:22;;;;;;;11.73;4.43;;;;;;;0.43;100.00;99960.56;4884296;29;20356;-92
2021/12/02 09:08:19;;;;;;;11.68;4.50;;;;;;;0.40;100.00;99952.06;4902991;29;20044;-95
2021/12/02 09:14:40;;;;;;;12.10;4.78;;;;;;;1.13;100.00;100049.78;4909754;29;20124;-94
2021/12/02 09:17:57;;;;;;;12.25;4.63;;;;;;;0.95;100.00;99988.59;4919779;29;20072;-95
2021/12/02 09:20:58;;;;;;;;;;;;;;;;;;;;;
2021/12/02 09:23:26;;;;;;;13.60;3.88;;;;;;;1.45;100.00;100018.56;4910427;29;20046;-91
2021/12/02 09:26:00;;;;;;;8.48;2.47;;;;;;;1.55;100.00;100055.75;4918567;29;20520;-94
2021/12/02 09:34:21;;;;;;;11.43;2.72;;;;;;;0.84;100.00;99992.47;4920426;29;20485;-93
2021/12/02 09:36:52;;;;;;;5.60;1.95;;;;;;;0.94;100.00;99991.44;4929503;29;20028;-93
2021/12/02 09:39:19;;;;;;;9.30;2.67;;;;;;;1.18;100.00;100034.09;4922297;29;20024;-93
2021/12/02 09:41:53;;;;;;;9.80;2.63;;;;;;;1.36;100.00;100063.22;4919336;29;20248;-92
2021/12/02 09:47:17;;;;;;;11.80;2.53;;;;;;;1.85;100.00;100117.47;4875462;29;20084;-93
2021/12/02 09:49:43;;;;;;;7.95;2.28;;;;;;;1.90;100.00;100121.25;4915338;29;20057;-88
2021/12/02 09:52:12;;;;;;;7.78;2.05;;;;;;;1.95;100.00;100139.47;4897683;29;20039;-88
2021/12/02 09:55:45;;;;;;;9.18;2.92;;;;;;;1.85;100.00;100109.44;4898892;29;20032;-90
2021/12/02 09:57:38;;;;;;;10.30;2.55;;;;;;;1.96;100.00;100113.53;4891219;29;20036;-90
2021/12/02 10:00:05;;;;;;;8.20;3.00;;;;;;;1.49;100.00;100037.75;4899230;29;20163;-91
2021/12/02 10:02:41;;;;;;;9.45;2.70;;;;;;;1.92;100.00;100105.03;4898816;29;20625;-90
2021/12/02 10:05:10;;;;;;;7.20;2.60;;;;;;;1.30;100.00;99998.94;4884126;29;20056;-90
2021/12/02 10:07:52;;;;;;;7.20;3.10;;;;;;;2.17;100.00;100115.56;4898562;29;20115;-90
2021/12/02 10:10:39;;;;;;;12.20;2.97;;;;;;;1.60;100.00;99988.41;4914349;29;20021;-91
2021/12/02 10:13:28;;;;;;;7.75;3.20;;;;;;;2.59;100.00;100123.09;4898801;29;20481;-90
2021/12/02 10:16:20;;;;;;;10.13;2.65;;;;;;;2.13;100.00;100033.94;4889333;29;20151;-91
2021/12/02 10:21:49;;;;;;;7.45;2.50;;;;;;;1.88;100.00;100015.44;4899810;29;19919;-91
2021/12/02 10:24:16;;;;;;;6.82;2.60;;;;;;;1.97;100.00;100014.34;4899062;29;20501;-91
2021/12/02 10:26:49;;;;;;;12.05;2.80;;;;;;;2.55;100.00;100097.66;4897360;29;20378;-89
2021/12/02 10:29:31;;;;;;;10.32;2.58;;;;;;;2.17;100.00;100022.72;4897580;29;20032;-91
2021/12/02 10:32:26;;;;;;;9.97;2.50;;;;;;;2.91;100.00;100139.88;4898135;29;20025;-92
2021/12/02 10:35:17;;;;;;;11.38;2.60;;;;;;;2.84;100.00;100146.16;4914320;29;20149;-93
2021/12/02 10:38:04;;;;;;;9.30;2.40;;;;;;;2.06;100.00;100031.19;4914323;29;20444;-93
2021/12/02 10:40:36;;;;;;;7.18;2.42;;;;;;;1.87;100.00;100041.34;4914409;29;20024;-93
2021/12/02 10:43:36;;;;;;;7.72;2.60;;;;;;;1.78;100.00;100033.56;4898495;29;20028;-92
2021/12/02 10:46:39;;;;;;;8.43;3.25;;;;;;;1.80;100.00;100045.75;4898418;29;20036;-93
2021/12/02 10:49:26;;;;;;;14.10;3.13;;;;;;;1.74;100.00;100049.13;4828030;29;20486;-93
2021/12/02 10:52:11;;;;;;;;;;;;;;;;;;;;;
2021/12/02 10:55:02;;;;;;;7.22;2.90;;;;;;;1.79;100.00;100051.25;4899762;29;20115;-93
2021/12/02 10:58:22;;;;;;;11.32;3.75;;;;;;;1.78;100.00;100030.91;4897738;29;20033;-91
2021/12/02 11:01:58;;;;;;;;;;;;;;;;;;;;;
2021/12/02 11:07:30;;;;;;;10.82;2.70;;;;;;;2.45;100.00;100115.84;4889596;29;20120;-93
2021/12/02 11:10:04;;;;;;;8.48;2.88;;;;;;;2.07;100.00;100046.25;4912996;29;20393;-93
2021/12/02 11:12:40;;;;;;;9.05;3.35;;;;;;;2.79;100.00;100135.97;4898500;29;20024;-93
2021/12/02 11:15:40;;;;;;;13.23;3.20;;;;;;;2.32;100.00;100064.75;4898585;29;20028;-93
2021/12/02 11:18:15;;;;;;;8.95;2.88;;;;;;;2.13;100.00;100045.50;4898050;29;20061;-92
2021/12/02 11:24:05;;;;;;;13.20;3.20;;;;;;;2.49;100.00;100109.13;4896934;29;20420;-92
2021/12/02 11:26:39;;;;;;;7.85;2.70;;;;;;;2.21;100.00;100048.09;4897584;29;20414;-93
2021/12/02 11:29:45;;;;;;;10.15;2.70;;;;;;;2.41;100.00;100069.84;4897279;29;20143;-92
2021/12/02 11:32:24;;;;;;;9.98;3.20;;;;;;;2.46;100.00;100067.47;4914084;29;20024;-92
2021/12/02 11:34:59;;;;;;;8.45;3.58;;;;;;;4.46;100.00;100183.72;4897537;29;20036;-92
2021/12/02 11:37:29;;;;;;;12.02;2.97;;;;;;;5.07;95.73;100066.75;4898803;29;20035;-92
2021/12/02 11:40:01;;;;;;;10.43;3.25;;;;;;;6.79;88.70;100071.91;4897572;29;20119;-92
2021/12/02 11:42:30;;;;;;;8.23;2.20;;;;;;;7.41;82.25;100118.28;4897761;29;20036;-92
2021/12/02 11:45:08;;;;;;;4.10;1.80;;;;;;;6.80;83.24;100097.84;4898306;29;20056;-93
2021/12/02 11:47:35;;;;;;;6.07;2.08;;;;;;;6.21;84.11;100119.16;4897653;29;20025;-93
2021/12/02 11:50:02;;;;;;;6.78;1.58;;;;;;;5.44;83.46;100107.69;4897037;29;20547;-92
2021/12/02 11:52:30;;;;;;;6.90;1.77;;;;;;;4.75;84.76;100082.47;4897621;29;20035;-91
2021/12/02 11:54:59;;;;;;;6.82;1.67;;;;;;;4.56;86.02;100067.84;4897668;29;20108;-92
2021/12/02 11:57:27;;;;;;;3.42;1.00;;;;;;;4.49;85.03;100089.31;4897675;29;20029;-92
2021/12/02 11:59:57;;;;;;;2.65;0.60;;;;;;;4.55;84.68;100136.88;4882698;29;20041;-93
2021/12/02 12:02:28;;;;;;;1.73;0.50;;;;;;;3.99;86.90;100077.69;4898398;29;20568;-92
2021/12/02 12:04:59;;;;;;;1.85;0.50;;;;;;;3.51;87.86;100065.63;4898056;29;20411;-92
2021/12/02 12:07:38;;;;;;;2.22;0.82;;;;;;;3.22;90.61;100071.00;4897627;29;20056;-92
2021/12/02 12:10:35;;;;;;;3.25;1.00;;;;;;;3.57;93.07;100191.97;4896869;29;20040;-92
2021/12/02 12:13:22;;;;;;;1.63;0.90;;;;;;;3.04;94.33;100144.63;4891687;29;20033;-92
2021/12/02 12:15:51;;;;;;;4.75;1.15;;;;;;;2.33;95.19;100056.53;4897286;29;20028;-92
2021/12/02 12:18:34;;;;;;;3.25;1.20;;;;;;;2.26;96.09;100064.47;4897300;29;20024;-92
2021/12/02 12:21:12;;;;;;;4.35;1.30;;;;;;;2.61;97.38;100125.59;4912702;29;20024;-93
2021/12/02 12:23:57;;;;;;;3.55;1.30;;;;;;;2.71;97.99;100149.44;4913581;29;20033;-92
2021/12/02 12:26:34;;;;;;;5.20;1.42;;;;;;;2.51;96.32;100117.81;4899273;29;20049;-91
2021/12/02 12:29:09;;;;;;;1.50;0.95;;;;;;;3.08;95.64;100194.13;4906589;29;20020;-93
2021/12/02 12:31:48;;;;;;;4.05;1.27;;;;;;;2.79;95.46;100138.63;4925806;29;20028;-92
2021/12/02 12:37:13;;;;;;;7.45;1.73;;;;;;;3.71;94.88;100223.31;4898634;29;20046;-92
2021/12/02 12:39:39;;;;;;;4.07;2.13;;;;;;;3.13;93.67;100099.75;4912925;29;20025;-92
2021/12/02 12:42:18;;;;;;;7.28;2.60;;;;;;;4.56;91.34;100208.41;4898883;29;20028;-93
2021/12/02 12:44:51;;;;;;;4.43;2.50;;;;;;;5.30;86.21;100229.69;4916397;29;20032;-92
2021/12/02 12:47:42;;;;;;;5.63;2.67;;;;;;;5.91;85.17;100215.59;4916325;29;20025;-91
2021/12/02 12:50:38;;;;;;;2.80;1.80;;;;;;;8.63;82.23;100208.53;4887490;29;20063;-91
2021/12/02 12:53:04;;;;;;;5.47;1.45;;;;;;;10.13;67.95;100212.09;4898733;29;20108;-91
2021/12/02 12:56:11;;;;;;;1.60;1.10;;;;;;;11.39;70.59;100208.53;4916732;29;20439;-91
2021/12/02 12:58:57;;;;;;;3.13;1.63;;;;;;;13.13;60.78;100223.94;4863535;29;20040;-90